createdAt,value
2022-08-03T00:01:35.684Z,48.83
2022-08-03T00:04:03.768Z,49.12
2022-08-03T00:06:36.462Z,49.16
2022-08-03T00:09:05.185Z,49.29
2022-08-03T00:11:33.046Z,49.01
2022-08-03T00:14:01.020Z,49.24
2022-08-03T00:16:30.368Z,49.36
2022-08-03T00:18:58.290Z,49.48
2022-08-03T00:21:29.251Z,49.79
2022-08-03T00:23:57.248Z,49.41
2022-08-03T00:26:25.155Z,49.67
2022-08-03T00:28:53.062Z,49.42
2022-08-03T00:31:32.216Z,49.52
2022-08-03T00:34:10.216Z,49.97
2022-08-03T00:36:40.678Z,50.04
2022-08-03T00:39:08.746Z,50.07
2022-08-03T00:41:36.682Z,49.79
2022-08-03T00:44:05.063Z,50.13
2022-08-03T00:46:33.006Z,50.14
2022-08-03T00:49:00.995Z,50.44
2022-08-03T00:51:30.449Z,50.25
2022-08-03T00:53:58.318Z,50.46
2022-08-03T00:56:26.242Z,50.36
2022-08-03T00:58:54.282Z,50.78
2022-08-03T01:01:22.373Z,50.52
2022-08-03T01:03:50.450Z,50.39
2022-08-03T01:06:19.368Z,50.42
2022-08-03T01:08:52.869Z,50.51
2022-08-03T01:11:25.342Z,50.62
2022-08-03T01:14:03.667Z,51.10
2022-08-03T01:16:49.252Z,50.49
2022-08-03T01:19:43.672Z,51.01
2022-08-03T01:22:31.232Z,51.23
2022-08-03T01:25:04.161Z,50.95
2022-08-03T01:27:36.611Z,51.08
2022-08-03T01:30:07.792Z,51.07
2022-08-03T01:32:59.008Z,51.49
2022-08-03T01:35:28.840Z,51.69
2022-08-03T01:37:59.513Z,51.70
2022-08-03T01:40:27.964Z,51.67
2022-08-03T01:42:56.307Z,51.15
2022-08-03T01:45:25.851Z,51.91
2022-08-03T01:47:53.774Z,51.56
2022-08-03T01:50:22.749Z,51.85
2022-08-03T01:52:50.764Z,51.52
2022-08-03T01:55:18.932Z,51.88
2022-08-03T01:58:05.785Z,52.12
2022-08-03T02:00:36.351Z,52.09
2022-08-03T02:03:04.693Z,51.74
2022-08-03T02:05:32.651Z,52.24
2022-08-03T02:08:00.593Z,52.60
2022-08-03T02:10:34.205Z,52.40
2022-08-03T02:13:04.301Z,52.61
2022-08-03T02:15:32.426Z,52.42
2022-08-03T02:18:01.815Z,52.61
2022-08-03T02:20:30.275Z,52.59
2022-08-03T02:22:58.227Z,52.90
2022-08-03T02:25:26.366Z,53.10
2022-08-03T02:27:56.735Z,52.43
2022-08-03T02:30:24.951Z,52.56
2022-08-03T02:32:54.851Z,52.80
2022-08-03T02:35:24.523Z,52.81
2022-08-03T02:37:54.078Z,53.21
2022-08-03T02:40:22.169Z,53.21
2022-08-03T02:42:51.253Z,53.12
2022-08-03T02:45:19.146Z,53.14
2022-08-03T02:47:54.005Z,53.22
2022-08-03T02:50:24.507Z,53.37
2022-08-03T02:52:52.663Z,53.15
2022-08-03T02:55:21.096Z,53.57
2022-08-03T02:57:48.952Z,53.42
2022-08-03T03:00:27.528Z,53.53
2022-08-03T03:02:57.501Z,53.36
2022-08-03T03:05:56.761Z,53.79
2022-08-03T03:08:18.694Z,53.65
2022-08-03T03:10:46.932Z,53.45
2022-08-03T03:13:15.045Z,53.76
2022-08-03T03:15:43.095Z,53.72
2022-08-03T03:18:11.059Z,53.89
2022-08-03T03:20:40.953Z,53.85
2022-08-03T03:23:09.642Z,53.71
2022-08-03T03:25:37.544Z,53.76
2022-08-03T03:28:06.394Z,53.43
2022-08-03T03:30:34.553Z,53.78
2022-08-03T03:33:02.866Z,53.95
2022-08-03T03:35:30.877Z,54.00
2022-08-03T03:38:08.054Z,53.82
2022-08-03T03:40:36.344Z,54.00
2022-08-03T03:43:04.262Z,54.04
2022-08-03T03:45:32.158Z,54.14
2022-08-03T03:48:01.205Z,54.03
2022-08-03T03:53:03.985Z,54.33
2022-08-03T03:55:33.426Z,54.41
2022-08-03T03:58:01.401Z,54.33
2022-08-03T04:00:29.412Z,54.57
2022-08-03T04:02:57.295Z,54.30
2022-08-03T04:05:45.886Z,54.18
2022-08-03T04:08:32.716Z,54.09
2022-08-03T04:11:08.586Z,54.15
2022-08-03T04:13:39.577Z,54.14
2022-08-03T04:16:08.234Z,54.13
2022-08-03T04:18:36.262Z,54.08
2022-08-03T04:21:05.092Z,54.04
2022-08-03T04:23:34.875Z,54.07
2022-08-03T04:26:04.340Z,54.25
2022-08-03T04:28:32.424Z,53.92
2022-08-03T04:31:00.604Z,54.17
2022-08-03T04:33:29.641Z,53.95
2022-08-03T04:36:02.749Z,54.34
2022-08-03T04:38:31.666Z,53.97
2022-08-03T04:40:59.628Z,54.09
2022-08-03T04:43:28.894Z,54.63
2022-08-03T04:45:56.823Z,54.32
2022-08-03T04:48:24.676Z,53.89
2022-08-03T04:50:52.498Z,53.84
2022-08-03T04:53:20.306Z,53.70
2022-08-03T04:55:48.239Z,53.87
2022-08-03T04:58:16.042Z,53.55
2022-08-03T05:00:45.623Z,53.72
2022-08-03T05:03:23.602Z,53.42
2022-08-03T05:05:52.390Z,53.47
2022-08-03T05:08:28.021Z,53.33
2022-08-03T05:10:58.807Z,53.55
2022-08-03T05:13:27.384Z,53.31
2022-08-03T05:15:56.598Z,53.51
2022-08-03T05:18:24.521Z,53.26
2022-08-03T05:20:52.346Z,53.27
2022-08-03T05:23:20.263Z,53.05
2022-08-03T05:25:50.095Z,53.08
2022-08-03T05:28:18.197Z,53.34
2022-08-03T05:30:46.393Z,52.87
2022-08-03T05:33:15.665Z,52.95
2022-08-03T05:35:57.675Z,52.66
2022-08-03T05:38:35.093Z,52.86
2022-08-03T05:41:21.408Z,52.60
2022-08-03T05:43:52.187Z,52.78
2022-08-03T05:46:21.548Z,52.57
2022-08-03T05:48:50.745Z,52.44
2022-08-03T05:51:18.660Z,51.45
2022-08-03T05:53:46.596Z,51.89
2022-08-03T05:56:16.263Z,51.11
2022-08-03T05:58:46.220Z,51.04
2022-08-03T06:01:14.154Z,50.70
2022-08-03T06:03:42.217Z,49.95
2022-08-03T06:06:11.618Z,49.51
2022-08-03T06:08:39.874Z,48.46
2022-08-03T06:11:07.744Z,47.52
2022-08-03T06:13:35.677Z,46.33
2022-08-03T06:16:03.543Z,45.58
2022-08-03T06:18:31.508Z,45.29
2022-08-03T06:21:09.595Z,43.95
2022-08-03T06:23:53.963Z,43.38
2022-08-03T06:26:26.646Z,42.19
2022-08-03T06:28:54.980Z,41.55
2022-08-03T06:31:26.090Z,40.21
2022-08-03T06:34:33.306Z,39.13
2022-08-03T06:36:51.191Z,38.40
2022-08-03T06:39:23.651Z,37.41
2022-08-03T06:41:52.728Z,37.58
2022-08-03T06:44:20.945Z,37.00
2022-08-03T06:46:48.797Z,35.75
2022-08-03T06:49:16.923Z,35.34
2022-08-03T06:52:05.424Z,33.83
2022-08-03T06:54:37.553Z,33.93
2022-08-03T06:57:06.457Z,32.29
2022-08-03T07:00:07.591Z,32.37
2022-08-03T07:02:22.175Z,31.99
2022-08-03T07:04:50.146Z,31.37
2022-08-03T07:07:19.382Z,30.33
2022-08-03T07:09:54.957Z,30.05
2022-08-03T07:12:29.194Z,29.71
2022-08-03T07:15:00.751Z,27.64
2022-08-03T07:17:29.617Z,26.52
2022-08-03T07:19:57.829Z,26.31
2022-08-03T07:22:25.680Z,26.73
2022-08-03T07:24:54.880Z,26.80
2022-08-03T07:27:22.712Z,25.44
2022-08-03T07:29:50.626Z,24.92
2022-08-03T07:32:18.864Z,25.29
2022-08-03T07:34:46.978Z,24.53
2022-08-03T07:37:14.821Z,24.87
2022-08-03T07:39:42.797Z,24.96
2022-08-03T07:42:12.001Z,25.51
2022-08-03T07:44:40.571Z,24.24
2022-08-03T07:47:08.416Z,23.07
2022-08-03T07:49:41.107Z,22.38
2022-08-03T07:52:28.333Z,21.90
2022-08-03T07:54:56.451Z,21.77
2022-08-03T07:57:25.793Z,21.66
2022-08-03T07:59:57.118Z,21.83
2022-08-03T08:02:30.123Z,21.25
2022-08-03T08:05:02.160Z,21.49
2022-08-03T08:07:32.919Z,20.70
2022-08-03T08:10:00.808Z,21.74
2022-08-03T08:12:30.009Z,21.80
2022-08-03T08:14:57.987Z,20.92
2022-08-03T08:17:25.829Z,20.81
2022-08-03T08:19:54.829Z,19.95
2022-08-03T08:22:30.263Z,20.46
2022-08-03T08:25:01.815Z,19.24
2022-08-03T08:28:29.133Z,19.73
2022-08-03T08:30:20.131Z,18.78
2022-08-03T08:32:50.242Z,19.09
2022-08-03T08:35:18.468Z,18.64
2022-08-03T08:37:51.082Z,18.58
2022-08-03T08:40:22.916Z,18.76
2022-08-03T08:42:58.274Z,19.45
2022-08-03T08:45:26.528Z,19.06
2022-08-03T08:47:58.230Z,18.74
2022-08-03T08:50:28.905Z,19.00
2022-08-03T08:52:56.873Z,18.87
2022-08-03T08:55:24.834Z,18.43
2022-08-03T08:57:56.772Z,19.26
2022-08-03T09:00:24.650Z,18.07
2022-08-03T09:02:52.471Z,18.12
2022-08-03T09:05:27.831Z,17.97
2022-08-03T09:08:03.811Z,16.92
2022-08-03T09:10:31.748Z,17.02
2022-08-03T09:13:01.091Z,17.09
2022-08-03T09:15:31.498Z,16.10
2022-08-03T09:18:00.734Z,15.88
2022-08-03T09:20:29.648Z,16.34
2022-08-03T09:22:59.250Z,15.99
2022-08-03T09:25:35.538Z,14.85
2022-08-03T09:28:10.372Z,15.53
2022-08-03T09:30:38.768Z,15.15
2022-08-03T09:33:08.324Z,15.37
2022-08-03T09:35:53.701Z,15.03
2022-08-03T09:38:24.202Z,14.58
2022-08-03T09:40:55.940Z,13.76
2022-08-03T09:43:28.275Z,13.92
2022-08-03T09:46:03.513Z,14.10
2022-08-03T09:48:33.303Z,13.92
2022-08-03T09:51:12.506Z,13.69
2022-08-03T09:53:57.207Z,13.19
2022-08-03T09:56:38.401Z,12.67
2022-08-03T09:59:07.707Z,13.21
2022-08-03T10:01:37.314Z,12.86
2022-08-03T10:04:05.680Z,11.95
2022-08-03T10:06:33.548Z,11.89
2022-08-03T10:09:08.745Z,12.16
2022-08-03T10:11:41.231Z,12.24
2022-08-03T10:14:18.783Z,12.29
2022-08-03T10:16:47.480Z,12.66
2022-08-03T10:19:15.846Z,11.87
2022-08-03T10:21:47.367Z,11.83
2022-08-03T10:24:15.338Z,10.90
2022-08-03T10:26:49.958Z,10.40
2022-08-03T10:29:25.474Z,10.48
2022-08-03T10:31:57.616Z,10.51
2022-08-03T10:34:27.402Z,10.23
2022-08-03T10:36:58.356Z,10.26
2022-08-03T10:39:28.748Z,10.17
2022-08-03T10:41:58.248Z,9.77
2022-08-03T10:44:27.629Z,9.97
2022-08-03T10:46:55.608Z,9.30
2022-08-03T10:49:34.301Z,9.23
2022-08-03T10:52:02.929Z,9.30
2022-08-03T10:55:00.147Z,8.94
2022-08-03T10:57:48.764Z,9.46
2022-08-03T11:00:18.747Z,9.84
2022-08-03T11:03:16.841Z,9.74
2022-08-03T11:05:47.084Z,10.25
2022-08-03T11:08:29.189Z,10.54
2022-08-03T11:10:59.194Z,11.31
2022-08-03T11:13:31.050Z,11.05
2022-08-03T11:16:03.931Z,11.25
2022-08-03T11:18:34.466Z,11.63
2022-08-03T11:21:03.951Z,10.42
2022-08-03T11:24:04.747Z,10.81
2022-08-03T11:26:30.524Z,10.68
2022-08-03T11:29:23.233Z,10.71
2022-08-03T11:31:53.103Z,10.25
2022-08-03T11:34:21.153Z,10.69
2022-08-03T11:37:21.397Z,10.98
2022-08-03T11:39:54.650Z,11.91
2022-08-03T11:42:48.011Z,12.38
2022-08-03T11:45:16.334Z,13.12
2022-08-03T11:47:50.543Z,13.73
2022-08-03T11:50:21.449Z,14.86
2022-08-03T11:52:50.004Z,15.93
2022-08-03T11:55:20.519Z,16.29
2022-08-03T11:59:00.776Z,15.92
2022-08-03T12:00:36.934Z,16.42
2022-08-03T12:03:08.817Z,16.81
2022-08-03T12:05:41.034Z,17.43
2022-08-03T12:08:09.625Z,17.89
2022-08-03T12:10:37.944Z,18.01
2022-08-03T12:14:05.773Z,18.44
2022-08-03T12:15:59.318Z,18.58
2022-08-03T12:18:28.626Z,18.13
2022-08-03T12:21:06.000Z,18.08
2022-08-03T12:23:37.641Z,18.07
2022-08-03T12:26:06.917Z,18.85
2022-08-03T12:28:37.728Z,18.84
2022-08-03T12:31:07.451Z,18.96
2022-08-03T12:33:56.519Z,18.96
2022-08-03T12:36:24.420Z,19.54
2022-08-03T12:38:56.224Z,19.93
2022-08-03T12:41:29.517Z,19.73
2022-08-03T12:43:57.620Z,19.75
2022-08-03T12:46:31.198Z,19.51
2022-08-03T12:49:01.500Z,19.45
2022-08-03T12:51:29.555Z,19.82
2022-08-03T12:53:58.016Z,19.86
2022-08-03T12:56:25.873Z,20.13
2022-08-03T12:58:54.201Z,20.20
2022-08-03T13:01:24.450Z,20.73
2022-08-03T13:03:54.610Z,20.82
2022-08-03T13:06:25.704Z,20.55
2022-08-03T13:09:03.487Z,20.33
2022-08-03T13:11:55.681Z,20.90
2022-08-03T13:14:20.149Z,20.87
2022-08-03T13:16:49.073Z,20.94
2022-08-03T13:19:17.015Z,20.70
2022-08-03T13:21:53.406Z,21.08
2022-08-03T13:24:31.973Z,21.34
2022-08-03T13:27:00.105Z,21.59
2022-08-03T13:29:28.070Z,21.45
2022-08-03T13:31:55.937Z,21.05
2022-08-03T13:34:24.186Z,21.63
2022-08-03T13:37:08.450Z,21.42
2022-08-03T13:39:57.829Z,21.90
2022-08-03T13:42:25.238Z,21.12
2022-08-03T13:44:53.204Z,20.92
2022-08-03T13:47:22.124Z,21.35
2022-08-03T13:50:00.249Z,21.11
2022-08-03T13:52:32.451Z,21.89
2022-08-03T13:55:00.711Z,21.42
2022-08-03T13:58:04.085Z,21.72
2022-08-03T14:00:26.527Z,22.49
2022-08-03T14:03:02.787Z,22.23
2022-08-03T14:05:32.686Z,22.21
2022-08-03T14:08:04.767Z,21.64
2022-08-03T14:10:33.917Z,21.58
2022-08-03T14:13:01.780Z,21.80
2022-08-03T14:15:30.025Z,21.98
2022-08-03T14:17:58.504Z,21.97
2022-08-03T14:20:37.689Z,21.18
2022-08-03T14:23:16.116Z,21.34
2022-08-03T14:25:52.579Z,21.66
2022-08-03T14:28:22.586Z,21.05
2022-08-03T14:30:52.036Z,21.93
2022-08-03T14:33:19.913Z,21.05
2022-08-03T14:35:47.915Z,21.83
2022-08-03T14:38:17.467Z,22.06
2022-08-03T14:40:45.554Z,21.94
2022-08-03T14:43:13.688Z,22.17
2022-08-03T14:45:41.537Z,21.92
2022-08-03T14:50:29.228Z,21.93
2022-08-03T14:50:57.471Z,22.22
2022-08-03T14:53:26.683Z,22.24
2022-08-03T14:55:54.576Z,22.26
2022-08-03T14:58:22.804Z,21.88
2022-08-03T15:00:51.248Z,22.26
2022-08-03T15:03:20.481Z,21.85
2022-08-03T15:05:48.557Z,22.21
2022-08-03T15:08:16.501Z,21.90
2022-08-03T15:10:45.762Z,22.28
2022-08-03T15:13:13.750Z,22.21
2022-08-03T15:15:41.976Z,22.02
2022-08-03T15:18:09.883Z,22.33
2022-08-03T15:20:45.552Z,21.77
2022-08-03T15:23:14.513Z,21.68
2022-08-03T15:26:27.970Z,22.11
2022-08-03T15:28:31.817Z,22.07
2022-08-03T15:30:59.698Z,21.88
2022-08-03T15:33:27.828Z,22.40
2022-08-03T15:35:56.229Z,22.30
2022-08-03T15:38:26.141Z,21.82
2022-08-03T15:40:55.482Z,22.15
2022-08-03T15:43:23.945Z,22.66
2022-08-03T15:48:41.032Z,22.62
2022-08-03T15:51:09.084Z,22.15
2022-08-03T15:53:37.036Z,22.49
2022-08-03T15:56:10.433Z,21.95
2022-08-03T15:58:59.633Z,22.46
2022-08-03T16:01:29.507Z,21.75
2022-08-03T16:03:57.463Z,22.22
2022-08-03T16:06:29.790Z,22.75
2022-08-03T16:09:03.712Z,22.36
2022-08-03T16:11:32.749Z,21.87
2022-08-03T16:14:12.904Z,22.09
2022-08-03T16:16:49.837Z,22.22
2022-08-03T16:19:17.864Z,22.59
2022-08-03T16:21:48.795Z,22.75
2022-08-03T16:24:25.866Z,22.21
2022-08-03T16:26:55.851Z,22.24
2022-08-03T16:29:24.208Z,22.20
2022-08-03T16:31:53.597Z,22.22
2022-08-03T16:34:21.634Z,22.55
2022-08-03T16:36:49.476Z,22.91
2022-08-03T16:39:17.573Z,22.35
2022-08-03T16:41:53.635Z,22.52
2022-08-03T16:44:29.639Z,22.64
2022-08-03T16:46:58.941Z,23.17
2022-08-03T16:49:55.252Z,22.83
2022-08-03T16:52:16.460Z,23.13
2022-08-03T16:54:52.686Z,23.27
2022-08-03T16:57:56.530Z,22.92
2022-08-03T17:00:11.750Z,23.37
2022-08-03T17:02:48.220Z,23.21
2022-08-03T17:05:16.413Z,23.27
2022-08-03T17:10:22.065Z,23.42
2022-08-03T17:12:55.280Z,23.72
2022-08-03T17:15:38.158Z,23.42
2022-08-03T17:18:12.475Z,23.68
2022-08-03T17:20:42.588Z,23.86
2022-08-03T17:23:34.833Z,24.34
2022-08-03T17:26:04.785Z,24.62
2022-08-03T17:28:50.029Z,24.81
2022-08-03T17:31:31.843Z,24.63
2022-08-03T17:34:04.621Z,25.08
2022-08-03T17:37:02.780Z,25.06
2022-08-03T17:39:36.191Z,24.92
2022-08-03T17:45:02.320Z,25.44
2022-08-03T17:47:42.003Z,25.46
2022-08-03T17:50:24.436Z,25.63
2022-08-03T17:53:00.765Z,25.79
2022-08-03T17:55:55.443Z,25.64
2022-08-03T17:58:20.917Z,25.32
2022-08-03T18:01:02.810Z,26.07
2022-08-03T18:03:57.773Z,26.17
2022-08-03T18:06:28.764Z,26.23
2022-08-03T18:08:57.431Z,26.49
2022-08-03T18:11:35.608Z,27.06
2022-08-03T18:16:57.915Z,27.49
2022-08-03T18:20:03.507Z,27.08
2022-08-03T18:22:17.944Z,27.33
2022-08-03T18:24:46.775Z,26.66
2022-08-03T18:27:16.878Z,26.71
2022-08-03T18:29:47.720Z,26.94
2022-08-03T18:32:16.899Z,27.08
2022-08-03T18:34:53.819Z,27.84
2022-08-03T18:37:25.169Z,28.07
2022-08-03T18:39:55.010Z,28.52
2022-08-03T18:45:14.690Z,28.91
2022-08-03T18:47:53.077Z,28.49
2022-08-03T18:50:26.013Z,29.00
2022-08-03T18:53:01.372Z,29.60
2022-08-03T18:55:33.029Z,30.21
2022-08-03T18:58:07.391Z,29.87
2022-08-03T19:00:54.305Z,29.78
2022-08-03T19:03:24.587Z,30.43
2022-08-03T19:06:03.030Z,30.96
2022-08-03T19:08:47.808Z,30.96
2022-08-03T19:11:18.956Z,31.39
2022-08-03T19:13:50.183Z,30.91
2022-08-03T19:16:22.195Z,31.58
2022-08-03T19:18:50.704Z,32.24
2022-08-03T19:21:19.817Z,32.63
2022-08-03T19:23:51.746Z,32.58
2022-08-03T19:26:30.386Z,32.63
2022-08-03T19:28:59.347Z,33.04
2022-08-03T19:31:30.838Z,33.05
2022-08-03T19:34:01.174Z,33.80
2022-08-03T19:36:32.942Z,33.56
2022-08-03T19:39:09.255Z,33.67
2022-08-03T19:41:42.038Z,33.79
2022-08-03T19:44:11.646Z,33.53
2022-08-03T19:46:43.007Z,33.73
2022-08-03T19:49:15.253Z,33.93
2022-08-03T19:52:01.026Z,34.15
2022-08-03T19:54:45.457Z,34.25
2022-08-03T19:57:20.787Z,34.49
2022-08-03T19:59:50.718Z,34.38
2022-08-03T20:02:26.526Z,34.54
2022-08-03T20:04:55.314Z,34.83
2022-08-03T20:07:23.860Z,35.27
2022-08-03T20:09:54.540Z,35.55
2022-08-03T20:12:26.636Z,35.58
2022-08-03T20:14:56.601Z,36.03
2022-08-03T20:20:12.324Z,36.12
2022-08-03T20:22:43.059Z,35.98
2022-08-03T20:25:16.265Z,36.36
2022-08-03T20:28:08.046Z,36.73
2022-08-03T20:30:37.144Z,36.30
2022-08-03T20:33:05.390Z,36.47
2022-08-03T20:35:33.849Z,36.48
2022-08-03T20:38:01.840Z,36.72
2022-08-03T20:40:31.180Z,36.98
2022-08-03T20:42:59.780Z,36.94
2022-08-03T20:45:59.579Z,37.11
2022-08-03T20:48:21.972Z,37.65
2022-08-03T20:50:50.201Z,37.70
2022-08-03T20:53:57.410Z,37.80
2022-08-03T20:56:07.460Z,38.30
2022-08-03T20:58:35.449Z,38.21
2022-08-03T21:01:04.116Z,38.23
2022-08-03T21:03:41.122Z,38.34
2022-08-03T21:06:27.976Z,38.33
2022-08-03T21:09:00.246Z,38.74
2022-08-03T21:12:54.738Z,25.07
2022-08-03T21:12:57.247Z,27.27
2022-08-03T21:12:58.871Z,28.47
2022-08-03T21:13:03.793Z,35.84
2022-08-03T21:13:08.184Z,39.23
2022-08-03T21:14:25.821Z,38.88
2022-08-03T21:16:53.798Z,39.04
2022-08-03T21:19:22.715Z,39.46
2022-08-03T21:21:50.771Z,38.99
2022-08-03T21:24:22.855Z,39.41
2022-08-03T21:26:52.610Z,39.41
2022-08-03T21:29:20.710Z,40.14
2022-08-03T21:31:48.862Z,39.79
2022-08-03T21:34:16.915Z,40.26
2022-08-03T21:36:45.038Z,40.78
2022-08-03T21:39:13.223Z,40.96
2022-08-03T21:41:41.516Z,40.49
2022-08-03T21:44:10.999Z,40.67
2022-08-03T21:46:40.547Z,41.32
2022-08-03T21:50:07.081Z,41.37
2022-08-03T21:51:58.698Z,41.50
2022-08-03T21:54:29.141Z,41.57
2022-08-03T21:56:57.138Z,41.25
2022-08-03T21:59:26.960Z,41.61
2022-08-03T22:01:58.770Z,42.05
2022-08-03T22:04:50.410Z,41.61
2022-08-03T22:07:15.604Z,41.79
2022-08-03T22:09:50.991Z,41.71
2022-08-03T22:12:21.843Z,41.89
2022-08-03T22:14:53.577Z,42.02
2022-08-03T22:17:54.554Z,42.23
2022-08-03T22:20:19.479Z,42.26
2022-08-03T22:22:55.309Z,42.73
2022-08-03T22:25:25.826Z,42.37
2022-08-03T22:27:53.972Z,42.90
2022-08-03T22:30:23.228Z,42.61
2022-08-03T22:32:51.542Z,42.52
2022-08-03T22:35:19.496Z,43.49
2022-08-03T22:37:47.477Z,43.25
2022-08-03T22:40:16.390Z,43.13
2022-08-03T22:42:45.794Z,43.49
2022-08-03T22:46:06.910Z,43.00
2022-08-03T22:48:03.163Z,43.18
2022-08-03T22:50:33.965Z,43.42
2022-08-03T22:53:01.945Z,43.58
2022-08-03T22:55:30.038Z,43.64
2022-08-03T22:57:57.881Z,44.07
2022-08-03T23:00:26.052Z,43.95
2022-08-03T23:02:55.049Z,44.05
2022-08-03T23:06:02.460Z,43.93
2022-08-03T23:08:14.530Z,44.39
2022-08-03T23:10:46.461Z,43.93
2022-08-03T23:13:15.416Z,44.12
2022-08-03T23:15:43.429Z,44.12
2022-08-03T23:18:11.244Z,44.83
2022-08-03T23:20:40.846Z,44.63
2022-08-03T23:23:12.602Z,44.71
2022-08-03T23:25:41.781Z,44.83
2022-08-03T23:28:10.665Z,44.94
2022-08-03T23:30:38.686Z,45.07
2022-08-03T23:33:06.646Z,44.94
2022-08-03T23:36:28.528Z,45.19
2022-08-03T23:38:41.884Z,45.26
2022-08-03T23:41:10.153Z,45.07
2022-08-03T23:43:51.044Z,45.25
2022-08-03T23:46:22.307Z,45.48
2022-08-03T23:48:51.200Z,45.65
2022-08-03T23:51:34.745Z,45.76
2022-08-03T23:54:10.875Z,45.82
2022-08-03T23:56:43.684Z,45.51
2022-08-03T23:59:15.048Z,45.92
